Tonic Sea — D5AZ8 — position and weather

sailwx.info

Track history (hours):
 
Tides and Currents Weather Stations Pressure Air Temp Water Temp Dewpoint Dewpoint Depression Visibility Wind Speed Wind Dir Waves Ship Positions

Tonic Sea

Last reported at 2015-Sep-04 16:31 UTC. Time now 2015-Sep-04 16:38 UTC.
Position N 52°25' E 004°49'.

Length 229 m; draft 13.8 m.

Type: Cargo ship. MMSI: 636015479.

Date/timePositionNaut miles runAvg speedWind from/ knotsBaromVisibWave heightAir tempDewpointWater temp
2015-Sep-04 16:31N 52°25' E 004°49'0 0.0
2015-Sep-04 15:31N 52°25' E 004°49'0 0.0
2015-Sep-04 14:31N 52°25' E 004°49'0 0.0
2015-Sep-04 13:31N 52°25' E 004°49'0 0.0
2015-Sep-04 12:31N 52°25' E 004°49'0 0.0
2015-Sep-04 11:31N 52°25' E 004°49'0 0.0
2015-Sep-04 10:31N 52°25' E 004°49'0 0.0
2015-Sep-04 09:28N 52°25' E 004°49'0 0.0
2015-Sep-04 08:31N 52°25' E 004°49'0 0.0
2015-Sep-04 07:31N 52°25' E 004°49'0 0.0
2015-Sep-04 06:28N 52°25' E 004°49'0 0.0
2015-Sep-04 05:31N 52°25' E 004°49'0 0.0
2015-Sep-04 04:31N 52°25' E 004°49'0 0.0
2015-Sep-04 03:31N 52°25' E 004°49'0 0.0
2015-Sep-04 02:31N 52°25' E 004°49'0 0.0
2015-Sep-04 01:31N 52°25' E 004°49'0 0.0
2015-Sep-04 00:31N 52°25' E 004°49'0 0.0
2015-Sep-03 23:31N 52°25' E 004°49'0 0.0
2015-Sep-03 22:31N 52°25' E 004°49'0 0.0
2015-Sep-03 21:31N 52°25' E 004°49'0 0.0
2015-Sep-03 20:31N 52°25' E 004°49'0 0.0
2015-Sep-03 19:31N 52°25' E 004°49'0 0.0
2015-Sep-03 18:31N 52°25' E 004°49'0 0.0
2015-Sep-03 17:31N 52°25' E 004°49'0 0.0
2015-Sep-03 16:31N 52°25' E 004°49'0 0.0
2015-Sep-03 15:31N 52°25' E 004°49'0 0.0
2015-Sep-03 14:31N 52°25' E 004°49'0 0.0
2015-Sep-03 13:31N 52°25' E 004°49'0 0.0
2015-Sep-03 12:31N 52°25' E 004°49'0 0.0
2015-Sep-03 11:31N 52°25' E 004°49'0 0.0
2015-Sep-03 10:31N 52°25' E 004°49'0 0.0
2015-Sep-03 09:31N 52°25' E 004°49'0 0.0
2015-Sep-03 08:31N 52°25' E 004°49'0 0.0
2015-Sep-03 07:31N 52°25' E 004°49'0 0.0
2015-Sep-03 06:31N 52°25' E 004°49'0 0.0
2015-Sep-03 05:31N 52°25' E 004°49'0 0.0
2015-Sep-03 04:31N 52°25' E 004°49'0 0.0
2015-Sep-03 03:31N 52°25' E 004°49'0 0.0
2015-Sep-03 02:31N 52°25' E 004°49'0 0.0
2015-Sep-03 01:31N 52°25' E 004°49'0 0.0
2015-Sep-03 00:31N 52°25' E 004°49'0 0.0
2015-Sep-02 23:31N 52°25' E 004°49'0 0.0
2015-Sep-02 22:31N 52°25' E 004°49'0 0.0
2015-Sep-02 21:31N 52°25' E 004°49'0 0.0
2015-Sep-02 20:31N 52°25' E 004°49'0 0.0
2015-Sep-02 19:31N 52°25' E 004°49'0 0.0
2015-Sep-02 18:31N 52°25' E 004°49'0 0.0
2015-Sep-02 17:28N 52°25' E 004°49'0 0.0
2015-Sep-02 16:31N 52°25' E 004°49'0 0.0
2015-Sep-02 15:31N 52°25' E 004°49'0 0.0
2015-Sep-02 14:31N 52°25' E 004°49'0 0.0
2015-Sep-02 13:31N 52°25' E 004°49'0 0.0
2015-Sep-02 12:31N 52°25' E 004°49'0 0.0
2015-Sep-02 11:31N 52°25' E 004°49'0 0.0
2015-Sep-02 10:31N 52°25' E 004°49'0 0.0
2015-Sep-02 09:31N 52°25' E 004°49'0 0.0
2015-Sep-02 08:31N 52°25' E 004°49'0 0.0
2015-Sep-02 07:31N 52°25' E 004°49'0 0.0
2015-Sep-02 06:31N 52°25' E 004°49'0 0.0
2015-Sep-02 05:31N 52°25' E 004°49'0 0.0
2015-Sep-02 04:31N 52°25' E 004°49'0 0.0
2015-Sep-02 03:31N 52°25' E 004°49'0 0.0
2015-Sep-02 02:31N 52°25' E 004°49'0 0.0
2015-Sep-02 01:31N 52°25' E 004°49'0 0.0
2015-Sep-02 00:31N 52°25' E 004°49'0 0.0
2015-Sep-01 23:31N 52°25' E 004°49'1 0.7
2015-Sep-01 22:34N 52°25' E 004°49'6 6.3
2015-Sep-01 21:33N 52°28' E 004°39'2 1.6
2015-Sep-01 20:33N 52°28' E 004°36'5 4.6
2015-Sep-01 19:33N 52°28' E 004°29'7 7.1
2015-Sep-01 18:33N 52°29' E 004°17'7 7.3
2015-Sep-01 17:33N 52°27' E 004°05'0 0.2
2015-Sep-01 16:14N 52°27' E 004°05'0 0.0
2015-Sep-01 15:32N 52°27' E 004°05'0 0.3
2015-Sep-01 14:32N 52°27' E 004°05'0 0.1
2015-Sep-01 13:32N 52°27' E 004°05'0 0.0
2015-Sep-01 12:32N 52°27' E 004°05'0 0.0
2015-Sep-01 11:32N 52°27' E 004°05'0 0.0
2015-Sep-01 10:32N 52°27' E 004°05'0 0.0
2015-Sep-01 09:32N 52°27' E 004°05'0 0.1
2015-Sep-01 08:32N 52°27' E 004°05'0 0.0
2015-Sep-01 07:32N 52°27' E 004°05'0 0.3
2015-Sep-01 06:32N 52°27' E 004°05'0 0.0
2015-Sep-01 05:32N 52°27' E 004°05'0 0.0
2015-Sep-01 04:32N 52°27' E 004°05'0 0.1
2015-Sep-01 03:32N 52°27' E 004°05'0 0.3
2015-Sep-01 02:32N 52°27' E 004°05'0 0.1
2015-Sep-01 01:32N 52°27' E 004°05'0 0.0
2015-Sep-01 00:32N 52°27' E 004°05'0 0.0
2015-Aug-31 23:32N 52°27' E 004°05'0 0.0
2015-Aug-31 22:32N 52°27' E 004°05'0 0.0
2015-Aug-31 21:32N 52°27' E 004°05'0 0.1
2015-Aug-31 20:32N 52°27' E 004°05'0 0.2
2015-Aug-31 19:32N 52°27' E 004°05'0 0.1
2015-Aug-31 18:32N 52°27' E 004°05'0 0.0
2015-Aug-31 17:23N 52°27' E 004°05'0 0.1
2015-Aug-31 16:32N 52°27' E 004°05'0 0.0
2015-Aug-31 15:32N 52°27' E 004°05'0 0.0
2015-Aug-31 14:29N 52°27' E 004°05'0 0.3
2015-Aug-31 13:32N 52°27' E 004°05'0 0.0
2015-Aug-31 12:32N 52°27' E 004°05'0 0.2
2015-Aug-31 11:33N 52°27' E 004°05'7 6.7
2015-Aug-31 10:33N 52°34' E 004°06'1312.3
2015-Aug-31 09:30N 52°46' E 003°58'1212.5
2015-Aug-31 08:33N 52°57' E 004°01'1312.1
2015-Aug-31 07:30N 53°06' E 004°16'2110.6
2015-Aug-31 05:33N 53°24' E 004°33'3611.9
2015-Aug-31 02:33N 53°58' E 004°54'1312.5
2015-Aug-31 01:33N 54°09' E 005°02'1412.4
2015-Aug-31 00:26N 54°22' E 005°11'24411.7
2015-Aug-30 03:33N 57°41' E 009°24'1111.1
2015-Aug-30 02:32N 57°46' E 009°43'1110.5
2015-Aug-30 01:29N 57°48' E 010°03'1010.6
2015-Aug-30 00:33N 57°49' E 010°22'1010.2
2015-Aug-29 23:34N 57°49' E 010°41'1010.3
2015-Aug-29 22:33N 57°42' E 010°57'1212.3
2015-Aug-29 21:33N 57°34' E 011°13'1211.8
2015-Aug-29 20:33N 57°25' E 011°27'1211.9
2015-Aug-29 19:33N 57°14' E 011°35'1211.7
2015-Aug-29 18:33N 57°03' E 011°42'1211.6
2015-Aug-29 17:33N 56°52' E 011°50'10210.0
2015-Aug-29 07:21N 55°13' E 011°06'3210.0
2015-Aug-29 04:08N 54°43' E 010°47'5 8.7
2015-Aug-29 03:34N 54°39' E 010°51'9 9.4
2015-Aug-29 02:33N 54°36' E 011°07'1010.4
2015-Aug-29 01:33N 54°32' E 011°23'1111.1
2015-Aug-29 00:33N 54°27' E 011°41'1111.1
2015-Aug-28 23:33N 54°26' E 011°60'9 9.3
2015-Aug-28 22:33N 54°31' E 012°13'21 9.9
2015-Aug-28 20:26N 54°45' E 012°40'3311.3
2015-Aug-28 17:30N 54°58' E 013°33'1111.5
2015-Aug-28 16:33N 55°01' E 013°51'1111.3
2015-Aug-28 15:33N 55°07' E 014°08'1111.3
2015-Aug-28 14:33N 55°15' E 014°21'1211.6
2015-Aug-28 13:33N 55°24' E 014°33'1111.3
2015-Aug-28 12:33N 55°30' E 014°50'1211.7
2015-Aug-28 11:33N 55°35' E 015°09'1211.5
2015-Aug-28 10:31N 55°39' E 015°29'14211.0
2015-Aug-27 21:32N 56°49' E 019°12'1311.8
2015-Aug-27 20:27N 57°01' E 019°22'19211.3
2015-Aug-27 03:24N 59°35' E 023°02'1011.6
2015-Aug-27 02:33N 59°37' E 023°21'1211.7
2015-Aug-27 01:33N 59°41' E 023°43'1211.8
2015-Aug-27 00:31N 59°44' E 024°06'6211.6
2015-Aug-26 19:10N 59°58' E 026°07'711.1
2015-Aug-26 18:33N 59°59' E 026°20'1110.5
2015-Aug-26 17:33N 60°01' E 026°40'1210.7
2015-Aug-26 16:28N 59°60' E 027°03'  
Track history (hours):
 
Tides and Currents Weather Stations Pressure Air Temp Water Temp Dewpoint Dewpoint Depression Visibility Wind Speed Wind Dir Waves Ship Positions

Tonic Sea

Last reported at 2015-Sep-04 16:31 UTC. Time now 2015-Sep-04 16:38 UTC.
Position N 52°25' E 004°49'.

Length 229 m; draft 13.8 m.

Type: Cargo ship. MMSI: 636015479.

Date/timePositionNaut miles runAvg speedWind from/ knotsBaromVisibWave heightAir tempDewpointWater temp
2015-Sep-04 16:31N 52°25' E 004°49'0 0.0
2015-Sep-04 15:31N 52°25' E 004°49'0 0.0
2015-Sep-04 14:31N 52°25' E 004°49'0 0.0
2015-Sep-04 13:31N 52°25' E 004°49'0 0.0
2015-Sep-04 12:31N 52°25' E 004°49'0 0.0
2015-Sep-04 11:31N 52°25' E 004°49'0 0.0
2015-Sep-04 10:31N 52°25' E 004°49'0 0.0
2015-Sep-04 09:28N 52°25' E 004°49'0 0.0
2015-Sep-04 08:31N 52°25' E 004°49'0 0.0
2015-Sep-04 07:31N 52°25' E 004°49'0 0.0
2015-Sep-04 06:28N 52°25' E 004°49'0 0.0
2015-Sep-04 05:31N 52°25' E 004°49'0 0.0
2015-Sep-04 04:31N 52°25' E 004°49'0 0.0
2015-Sep-04 03:31N 52°25' E 004°49'0 0.0
2015-Sep-04 02:31N 52°25' E 004°49'0 0.0
2015-Sep-04 01:31N 52°25' E 004°49'0 0.0
2015-Sep-04 00:31N 52°25' E 004°49'0 0.0
2015-Sep-03 23:31N 52°25' E 004°49'0 0.0
2015-Sep-03 22:31N 52°25' E 004°49'0 0.0
2015-Sep-03 21:31N 52°25' E 004°49'0 0.0
2015-Sep-03 20:31N 52°25' E 004°49'0 0.0
2015-Sep-03 19:31N 52°25' E 004°49'0 0.0
2015-Sep-03 18:31N 52°25' E 004°49'0 0.0
2015-Sep-03 17:31N 52°25' E 004°49'0 0.0
2015-Sep-03 16:31N 52°25' E 004°49'0 0.0
2015-Sep-03 15:31N 52°25' E 004°49'0 0.0
2015-Sep-03 14:31N 52°25' E 004°49'0 0.0
2015-Sep-03 13:31N 52°25' E 004°49'0 0.0
2015-Sep-03 12:31N 52°25' E 004°49'0 0.0
2015-Sep-03 11:31N 52°25' E 004°49'0 0.0
2015-Sep-03 10:31N 52°25' E 004°49'0 0.0
2015-Sep-03 09:31N 52°25' E 004°49'0 0.0
2015-Sep-03 08:31N 52°25' E 004°49'0 0.0
2015-Sep-03 07:31N 52°25' E 004°49'0 0.0
2015-Sep-03 06:31N 52°25' E 004°49'0 0.0
2015-Sep-03 05:31N 52°25' E 004°49'0 0.0
2015-Sep-03 04:31N 52°25' E 004°49'0 0.0
2015-Sep-03 03:31N 52°25' E 004°49'0 0.0
2015-Sep-03 02:31N 52°25' E 004°49'0 0.0
2015-Sep-03 01:31N 52°25' E 004°49'0 0.0
2015-Sep-03 00:31N 52°25' E 004°49'0 0.0
2015-Sep-02 23:31N 52°25' E 004°49'0 0.0
2015-Sep-02 22:31N 52°25' E 004°49'0 0.0
2015-Sep-02 21:31N 52°25' E 004°49'0 0.0
2015-Sep-02 20:31N 52°25' E 004°49'0 0.0
2015-Sep-02 19:31N 52°25' E 004°49'0 0.0
2015-Sep-02 18:31N 52°25' E 004°49'0 0.0
2015-Sep-02 17:28N 52°25' E 004°49'0 0.0
2015-Sep-02 16:31N 52°25' E 004°49'0 0.0
2015-Sep-02 15:31N 52°25' E 004°49'0 0.0
2015-Sep-02 14:31N 52°25' E 004°49'0 0.0
2015-Sep-02 13:31N 52°25' E 004°49'0 0.0
2015-Sep-02 12:31N 52°25' E 004°49'0 0.0
2015-Sep-02 11:31N 52°25' E 004°49'0 0.0
2015-Sep-02 10:31N 52°25' E 004°49'0 0.0
2015-Sep-02 09:31N 52°25' E 004°49'0 0.0
2015-Sep-02 08:31N 52°25' E 004°49'0 0.0
2015-Sep-02 07:31N 52°25' E 004°49'0 0.0
2015-Sep-02 06:31N 52°25' E 004°49'0 0.0
2015-Sep-02 05:31N 52°25' E 004°49'0 0.0
2015-Sep-02 04:31N 52°25' E 004°49'0 0.0
2015-Sep-02 03:31N 52°25' E 004°49'0 0.0
2015-Sep-02 02:31N 52°25' E 004°49'0 0.0
2015-Sep-02 01:31N 52°25' E 004°49'0 0.0
2015-Sep-02 00:31N 52°25' E 004°49'0 0.0
2015-Sep-01 23:31N 52°25' E 004°49'1 0.7
2015-Sep-01 22:34N 52°25' E 004°49'6 6.3
2015-Sep-01 21:33N 52°28' E 004°39'2 1.6
2015-Sep-01 20:33N 52°28' E 004°36'5 4.6
2015-Sep-01 19:33N 52°28' E 004°29'7 7.1
2015-Sep-01 18:33N 52°29' E 004°17'7 7.3
2015-Sep-01 17:33N 52°27' E 004°05'0 0.2
2015-Sep-01 16:14N 52°27' E 004°05'0 0.0
2015-Sep-01 15:32N 52°27' E 004°05'0 0.3
2015-Sep-01 14:32N 52°27' E 004°05'0 0.1
2015-Sep-01 13:32N 52°27' E 004°05'0 0.0
2015-Sep-01 12:32N 52°27' E 004°05'0 0.0
2015-Sep-01 11:32N 52°27' E 004°05'0 0.0
2015-Sep-01 10:32N 52°27' E 004°05'0 0.0
2015-Sep-01 09:32N 52°27' E 004°05'0 0.1
2015-Sep-01 08:32N 52°27' E 004°05'0 0.0
2015-Sep-01 07:32N 52°27' E 004°05'0 0.3
2015-Sep-01 06:32N 52°27' E 004°05'0 0.0
2015-Sep-01 05:32N 52°27' E 004°05'0 0.0
2015-Sep-01 04:32N 52°27' E 004°05'0 0.1
2015-Sep-01 03:32N 52°27' E 004°05'0 0.3
2015-Sep-01 02:32N 52°27' E 004°05'0 0.1
2015-Sep-01 01:32N 52°27' E 004°05'0 0.0
2015-Sep-01 00:32N 52°27' E 004°05'0 0.0
2015-Aug-31 23:32N 52°27' E 004°05'0 0.0
2015-Aug-31 22:32N 52°27' E 004°05'0 0.0
2015-Aug-31 21:32N 52°27' E 004°05'0 0.1
2015-Aug-31 20:32N 52°27' E 004°05'0 0.2
2015-Aug-31 19:32N 52°27' E 004°05'0 0.1
2015-Aug-31 18:32N 52°27' E 004°05'0 0.0
2015-Aug-31 17:23N 52°27' E 004°05'0 0.1
2015-Aug-31 16:32N 52°27' E 004°05'0 0.0
2015-Aug-31 15:32N 52°27' E 004°05'0 0.0
2015-Aug-31 14:29N 52°27' E 004°05'0 0.3
2015-Aug-31 13:32N 52°27' E 004°05'0 0.0
2015-Aug-31 12:32N 52°27' E 004°05'0 0.2
2015-Aug-31 11:33N 52°27' E 004°05'7 6.7
2015-Aug-31 10:33N 52°34' E 004°06'1312.3
2015-Aug-31 09:30N 52°46' E 003°58'1212.5
2015-Aug-31 08:33N 52°57' E 004°01'1312.1
2015-Aug-31 07:30N 53°06' E 004°16'2110.6
2015-Aug-31 05:33N 53°24' E 004°33'3611.9
2015-Aug-31 02:33N 53°58' E 004°54'1312.5
2015-Aug-31 01:33N 54°09' E 005°02'1412.4
2015-Aug-31 00:26N 54°22' E 005°11'24411.7
2015-Aug-30 03:33N 57°41' E 009°24'1111.1
2015-Aug-30 02:32N 57°46' E 009°43'1110.5
2015-Aug-30 01:29N 57°48' E 010°03'1010.6
2015-Aug-30 00:33N 57°49' E 010°22'1010.2
2015-Aug-29 23:34N 57°49' E 010°41'1010.3
2015-Aug-29 22:33N 57°42' E 010°57'1212.3
2015-Aug-29 21:33N 57°34' E 011°13'1211.8
2015-Aug-29 20:33N 57°25' E 011°27'1211.9
2015-Aug-29 19:33N 57°14' E 011°35'1211.7
2015-Aug-29 18:33N 57°03' E 011°42'1211.6
2015-Aug-29 17:33N 56°52' E 011°50'10210.0
2015-Aug-29 07:21N 55°13' E 011°06'3210.0
2015-Aug-29 04:08N 54°43' E 010°47'5 8.7
2015-Aug-29 03:34N 54°39' E 010°51'9 9.4
2015-Aug-29 02:33N 54°36' E 011°07'1010.4
2015-Aug-29 01:33N 54°32' E 011°23'1111.1
2015-Aug-29 00:33N 54°27' E 011°41'1111.1
2015-Aug-28 23:33N 54°26' E 011°60'9 9.3
2015-Aug-28 22:33N 54°31' E 012°13'21 9.9
2015-Aug-28 20:26N 54°45' E 012°40'3311.3
2015-Aug-28 17:30N 54°58' E 013°33'1111.5
2015-Aug-28 16:33N 55°01' E 013°51'1111.3
2015-Aug-28 15:33N 55°07' E 014°08'1111.3
2015-Aug-28 14:33N 55°15' E 014°21'1211.6
2015-Aug-28 13:33N 55°24' E 014°33'1111.3
2015-Aug-28 12:33N 55°30' E 014°50'1211.7
2015-Aug-28 11:33N 55°35' E 015°09'1211.5
2015-Aug-28 10:31N 55°39' E 015°29'14211.0
2015-Aug-27 21:32N 56°49' E 019°12'1311.8
2015-Aug-27 20:27N 57°01' E 019°22'19211.3
2015-Aug-27 03:24N 59°35' E 023°02'1011.6
2015-Aug-27 02:33N 59°37' E 023°21'1211.7
2015-Aug-27 01:33N 59°41' E 023°43'1211.8
2015-Aug-27 00:31N 59°44' E 024°06'6211.6
2015-Aug-26 19:10N 59°58' E 026°07'711.1
2015-Aug-26 18:33N 59°59' E 026°20'1110.5
2015-Aug-26 17:33N 60°01' E 026°40'1210.7
2015-Aug-26 16:28N 59°60' E 027°03'  

Dump ship's entire track history